METAR Data
IDs: Format: Raw Decoded Include TAF

Data at: 0014 UTC 30 May 2020

METAR for:KAIO (Atlantic Muni, IA, US)
Text:KAIO 292355Z AUTO 35007KT 10SM CLR 22/07 A3014 RMK AO2
Temperature: 22.0°C ( 72°F)
Dewpoint: 7.0°C ( 45°F) [RH = 38%]
Pressure (altimeter):30.14 inches Hg (1020.7 mb)
Winds:from the N (350 degrees) at 8 MPH (7 knots; 3.6 m/s)
Visibility:10 or more sm (16+ km)
Ceiling:at least 12,000 feet AGL
Clouds:sky clear below 12,000 feet AGL
QC Flag:automated observation with no human augmentation